createdAt,value
2023-06-13T00:04:24.696Z,5.07
2023-06-13T00:09:05.150Z,4.63
2023-06-13T00:13:43.284Z,5.75
2023-06-13T00:18:24.618Z,13.63
2023-06-13T00:23:05.176Z,5.30
2023-06-13T00:27:44.994Z,5.25
2023-06-13T00:32:24.597Z,5.05
2023-06-13T00:37:05.848Z,4.77
2023-06-13T00:41:46.747Z,4.88
2023-06-13T00:46:31.208Z,6.07
2023-06-13T00:51:10.511Z,5.60
2023-06-13T00:55:52.367Z,5.22
2023-06-13T01:00:31.820Z,5.80
2023-06-13T01:05:12.687Z,5.10
2023-06-13T01:09:53.401Z,6.53
2023-06-13T01:14:43.238Z,5.30
2023-06-13T01:19:32.752Z,6.32
2023-06-13T01:24:20.554Z,6.47
2023-06-13T01:29:01.938Z,5.72
2023-06-13T01:33:43.449Z,5.40
2023-06-13T01:38:22.088Z,5.90
2023-06-13T01:43:00.955Z,5.60
2023-06-13T01:47:48.642Z,6.20
2023-06-13T01:52:35.480Z,5.70
2023-06-13T01:57:21.354Z,5.70
2023-06-13T02:02:01.521Z,5.45
2023-06-13T02:06:41.610Z,5.88
2023-06-13T02:11:19.769Z,6.37
2023-06-13T02:15:59.293Z,5.72
2023-06-13T02:20:39.063Z,5.78
2023-06-13T02:25:21.313Z,5.87
2023-06-13T02:30:01.633Z,6.32
2023-06-13T02:34:41.025Z,6.45
2023-06-13T02:39:20.333Z,6.37
2023-06-13T02:44:01.597Z,7.40
2023-06-13T02:48:39.382Z,7.15
2023-06-13T02:53:18.851Z,6.45
2023-06-13T02:57:58.552Z,6.83
2023-06-13T03:02:40.482Z,6.78
2023-06-13T03:07:21.254Z,6.47
2023-06-13T03:12:00.562Z,7.33
2023-06-13T03:16:40.225Z,6.68
2023-06-13T03:21:21.506Z,7.13
2023-06-13T03:25:59.282Z,8.00
2023-06-13T03:30:39.934Z,7.47
2023-06-13T03:35:18.065Z,7.53
2023-06-13T03:39:59.028Z,7.05
2023-06-13T03:44:37.286Z,6.47
2023-06-13T03:49:16.953Z,6.78
2023-06-13T03:53:56.391Z,6.28
2023-06-13T03:58:37.283Z,7.03
2023-06-13T04:03:15.762Z,6.45
2023-06-13T04:07:56.161Z,6.97
2023-06-13T04:12:34.605Z,6.50
2023-06-13T04:17:15.863Z,6.13
2023-06-13T04:21:54.059Z,6.00
2023-06-13T04:26:33.249Z,6.22
2023-06-13T04:31:13.267Z,6.17
2023-06-13T04:35:55.729Z,6.70
2023-06-13T04:40:38.318Z,6.45
2023-06-13T04:45:22.888Z,6.70
2023-06-13T04:50:03.584Z,6.88
2023-06-13T04:54:44.480Z,6.90
2023-06-13T04:59:22.633Z,6.87
2023-06-13T05:04:03.083Z,6.53
2023-06-13T05:08:41.569Z,6.68
2023-06-13T05:13:22.512Z,6.68
2023-06-13T05:18:01.495Z,6.13
2023-06-13T05:22:40.569Z,6.20
2023-06-13T05:27:19.815Z,6.28
2023-06-13T05:32:00.821Z,6.43
2023-06-13T05:36:40.362Z,5.70
2023-06-13T05:41:18.628Z,5.50
2023-06-13T05:45:59.065Z,4.90
2023-06-13T05:50:39.064Z,5.50
2023-06-13T05:55:18.158Z,4.90
2023-06-13T05:59:57.001Z,5.20
2023-06-13T06:04:36.374Z,5.13
2023-06-13T06:09:17.606Z,5.28
2023-06-13T06:13:55.724Z,4.85
2023-06-13T06:18:35.340Z,5.23
2023-06-13T06:23:15.956Z,5.07
2023-06-13T06:27:56.297Z,4.60
2023-06-13T06:32:33.866Z,4.70
2023-06-13T06:37:14.421Z,4.60
2023-06-13T06:41:52.970Z,4.32
2023-06-13T06:46:46.053Z,4.40
2023-06-13T06:51:25.634Z,6.93
2023-06-13T06:56:03.803Z,4.82
2023-06-13T07:00:43.287Z,4.50
2023-06-13T07:05:24.510Z,4.07
2023-06-13T07:10:02.536Z,5.95
2023-06-13T07:14:41.932Z,4.50
2023-06-13T07:19:21.462Z,6.37
2023-06-13T07:24:08.143Z,4.28
2023-06-13T07:28:46.791Z,3.95
2023-06-13T07:33:26.620Z,4.00
2023-06-13T07:38:06.747Z,4.17
2023-06-13T07:42:47.353Z,4.00
2023-06-13T07:47:24.916Z,4.13
2023-06-13T07:52:05.552Z,3.57
2023-06-13T07:56:45.444Z,3.42
2023-06-13T08:01:25.577Z,3.67
2023-06-13T08:06:05.760Z,3.50
2023-06-13T08:10:45.969Z,3.40
2023-06-13T08:15:25.602Z,3.45
2023-06-13T08:20:09.538Z,3.83
2023-06-13T08:24:47.698Z,3.20
2023-06-13T08:29:29.705Z,3.97
2023-06-13T08:34:11.554Z,3.97
2023-06-13T08:38:54.034Z,3.30
2023-06-13T08:43:32.899Z,3.60
2023-06-13T08:48:11.701Z,3.70
2023-06-13T08:52:51.889Z,5.10
2023-06-13T08:57:33.337Z,4.10
2023-06-13T09:02:17.367Z,4.65
2023-06-13T09:06:56.919Z,4.20
2023-06-13T09:11:36.780Z,4.60
2023-06-13T09:16:17.781Z,4.47
2023-06-13T09:20:57.923Z,4.43
2023-06-13T09:25:38.797Z,3.87
2023-06-13T09:30:17.846Z,3.70
2023-06-13T09:34:58.418Z,4.68
2023-06-13T09:39:37.228Z,3.97
2023-06-13T09:44:15.721Z,4.20
2023-06-13T09:48:55.174Z,4.50
2023-06-13T09:53:37.366Z,4.60
2023-06-13T09:58:31.783Z,4.30
2023-06-13T10:03:20.633Z,4.80
2023-06-13T10:08:01.033Z,4.18
2023-06-13T10:12:46.535Z,4.43
2023-06-13T10:17:31.225Z,4.13
2023-06-13T10:22:10.124Z,3.80
2023-06-13T10:26:48.844Z,4.10
2023-06-13T10:31:37.043Z,4.45
2023-06-13T10:36:25.153Z,4.43
2023-06-13T10:41:31.751Z,4.20
2023-06-13T10:46:10.786Z,4.30
2023-06-13T10:50:51.878Z,4.20
2023-06-13T10:55:33.577Z,3.90
2023-06-13T11:00:25.555Z,4.37
2023-06-13T11:05:03.814Z,4.10
2023-06-13T11:09:44.966Z,4.20
2023-06-13T11:14:24.287Z,4.10
2023-06-13T11:19:07.663Z,4.00
2023-06-13T11:23:56.017Z,4.40
2023-06-13T11:28:34.836Z,4.68
2023-06-13T11:33:14.545Z,4.00
2023-06-13T11:37:57.835Z,4.45
2023-06-13T11:42:35.244Z,4.40
2023-06-13T11:47:16.918Z,4.57
2023-06-13T11:51:54.399Z,3.83
2023-06-13T11:56:36.288Z,3.90
2023-06-13T12:01:17.698Z,3.90
2023-06-13T12:05:58.895Z,4.45
2023-06-13T12:10:39.099Z,4.05
2023-06-13T12:15:18.310Z,3.97
2023-06-13T12:20:08.792Z,3.87
2023-06-13T12:24:48.454Z,4.18
2023-06-13T12:29:29.089Z,4.00
2023-06-13T12:34:10.054Z,3.90
2023-06-13T12:38:48.316Z,3.95
2023-06-13T12:43:31.263Z,3.50
2023-06-13T12:48:18.578Z,3.77
2023-06-13T12:53:04.009Z,4.07
2023-06-13T12:57:42.355Z,3.65
2023-06-13T13:02:25.331Z,3.83
2023-06-13T13:07:05.066Z,3.60
2023-06-13T13:11:43.798Z,3.72
2023-06-13T13:16:23.371Z,3.95
2023-06-13T13:21:04.243Z,3.63
2023-06-13T13:25:42.253Z,3.58
2023-06-13T13:30:22.257Z,3.80
2023-06-13T13:35:02.820Z,3.60
2023-06-13T13:39:42.600Z,3.90
2023-06-13T13:44:21.115Z,3.50
2023-06-13T13:49:00.261Z,3.92
2023-06-13T13:53:39.986Z,3.63
2023-06-13T13:58:21.288Z,3.72
2023-06-13T14:02:58.834Z,3.72
2023-06-13T14:07:38.640Z,4.10
2023-06-13T14:12:17.939Z,3.70
2023-06-13T14:16:59.729Z,3.80
2023-06-13T14:21:37.242Z,3.60
2023-06-13T14:26:16.627Z,3.50
2023-06-13T14:30:56.250Z,3.83
2023-06-13T14:35:37.189Z,3.97
2023-06-13T14:40:15.853Z,3.70
2023-06-13T14:44:55.067Z,3.88
2023-06-13T14:49:34.404Z,3.47
2023-06-13T14:54:17.249Z,3.83
2023-06-13T14:58:56.764Z,3.90
2023-06-13T15:03:41.100Z,4.30
2023-06-13T15:08:18.776Z,3.90
2023-06-13T15:13:00.056Z,3.80
2023-06-13T15:17:37.988Z,3.72
2023-06-13T15:22:17.948Z,4.15
2023-06-13T15:26:56.990Z,3.90
2023-06-13T15:31:38.412Z,3.58
2023-06-13T15:36:16.256Z,3.70
2023-06-13T15:40:57.535Z,3.63
2023-06-13T15:45:35.304Z,3.50
2023-06-13T15:50:16.908Z,3.65
2023-06-13T15:54:54.723Z,3.70
2023-06-13T15:59:34.158Z,3.20
2023-06-13T16:04:13.659Z,3.50
2023-06-13T16:08:54.428Z,3.40
2023-06-13T16:13:32.721Z,3.43
2023-06-13T16:18:12.432Z,4.05
2023-06-13T16:22:51.730Z,3.30
2023-06-13T16:27:32.768Z,3.50
2023-06-13T16:32:11.304Z,3.30
2023-06-13T16:36:50.842Z,3.42
2023-06-13T16:41:29.948Z,3.17
2023-06-13T16:46:11.169Z,3.25
2023-06-13T16:50:49.129Z,3.13
2023-06-13T16:55:28.879Z,3.42
2023-06-13T17:00:10.441Z,3.80
2023-06-13T17:04:49.740Z,3.67
2023-06-13T17:09:27.360Z,3.60
2023-06-13T17:14:06.901Z,3.53
2023-06-13T17:18:50.013Z,3.70
2023-06-13T17:23:31.040Z,3.53
2023-06-13T17:28:08.918Z,3.80
2023-06-13T17:32:49.671Z,3.95
2023-06-13T17:37:28.736Z,3.80
2023-06-13T17:42:09.617Z,3.85
2023-06-13T17:46:46.954Z,3.60
2023-06-13T17:51:26.509Z,3.60
2023-06-13T17:56:06.711Z,3.53
2023-06-13T18:00:47.390Z,3.00
2023-06-13T18:05:25.300Z,3.15
2023-06-13T18:10:05.040Z,3.30
2023-06-13T18:14:44.414Z,2.93
2023-06-13T18:19:25.208Z,3.22
2023-06-13T18:24:03.400Z,3.40
2023-06-13T18:28:42.966Z,3.30
2023-06-13T18:33:22.487Z,3.27
2023-06-13T18:38:03.668Z,2.92
2023-06-13T18:42:41.855Z,3.00
2023-06-13T18:47:21.762Z,3.37
2023-06-13T18:52:01.000Z,3.00
2023-06-13T18:56:43.546Z,3.35
2023-06-13T19:01:25.737Z,3.20
2023-06-13T19:06:05.925Z,2.80
2023-06-13T19:10:45.229Z,3.35
2023-06-13T19:15:26.049Z,3.22
2023-06-13T19:20:05.632Z,3.00
2023-06-13T19:24:43.895Z,2.95
2023-06-13T19:29:23.439Z,3.20
2023-06-13T19:34:04.825Z,3.40
2023-06-13T19:38:42.998Z,3.15
2023-06-13T19:43:22.011Z,3.10
2023-06-13T19:48:07.936Z,3.60
2023-06-13T19:52:49.806Z,3.20
2023-06-13T19:57:31.727Z,3.00
2023-06-13T20:02:11.365Z,3.00
2023-06-13T20:06:49.224Z,3.40
2023-06-13T20:11:30.045Z,3.30
2023-06-13T20:16:05.126Z,2.92
2023-06-13T20:20:39.325Z,3.13
2023-06-13T20:25:14.131Z,3.20
2023-06-13T20:29:51.538Z,3.40
2023-06-13T20:34:25.726Z,3.20
2023-06-13T20:38:59.705Z,3.30
2023-06-13T20:43:33.942Z,3.10
2023-06-13T20:48:09.567Z,3.30
2023-06-13T20:52:43.612Z,3.10
2023-06-13T20:57:17.684Z,3.20
2023-06-13T21:01:54.506Z,2.88
2023-06-13T21:06:29.953Z,3.20
2023-06-13T21:11:04.078Z,3.30
2023-06-13T21:15:38.663Z,3.20
2023-06-13T21:20:13.958Z,3.27
2023-06-13T21:24:50.458Z,3.28
2023-06-13T21:29:24.537Z,3.33
2023-06-13T21:33:58.660Z,3.00
2023-06-13T21:38:33.923Z,2.90
2023-06-13T21:43:09.605Z,3.05
2023-06-13T21:47:47.248Z,3.03
2023-06-13T21:52:21.379Z,3.20
2023-06-13T21:56:55.452Z,3.15
2023-06-13T22:01:31.103Z,3.10
2023-06-13T22:06:05.330Z,3.00
2023-06-13T22:10:39.396Z,2.95
2023-06-13T22:15:13.961Z,3.13
2023-06-13T22:19:50.617Z,2.50
2023-06-13T22:24:25.061Z,2.80
2023-06-13T22:28:59.866Z,2.60
2023-06-13T22:33:33.973Z,2.60
2023-06-13T22:38:09.506Z,2.63
2023-06-13T22:42:44.981Z,2.72
2023-06-13T22:47:19.631Z,2.60
2023-06-13T22:51:54.105Z,2.60
2023-06-13T22:56:29.598Z,2.60
2023-06-13T23:01:03.638Z,2.80
2023-06-13T23:05:37.835Z,2.50
2023-06-13T23:10:12.190Z,2.60
2023-06-13T23:14:48.077Z,2.97
2023-06-13T23:19:25.945Z,2.65
2023-06-13T23:24:00.316Z,3.13
2023-06-13T23:28:34.527Z,2.67
2023-06-13T23:33:10.334Z,2.70
2023-06-13T23:37:45.593Z,2.93
2023-06-13T23:42:20.031Z,2.83
2023-06-13T23:46:54.496Z,3.10
2023-06-13T23:51:30.308Z,2.80
2023-06-13T23:56:04.685Z,3.17
